Time;durP1;ratioP1;P1;durP2;ratioP2;P2;SDS_P1;SDS_P2;PMS_P1;PMS_P2;Temp;Humidity;BMP_temperature;BMP_pressure;BME280_temperature;BME280_humidity;BME280_pressure;Samples;Min_cycle;Max_cycle;Signal;HPM_P1;HPM_P2
2022/12/14 00:01:23;;;;;;;0.60;0.35;;;20.40;77.00;;;;;;5073949;28;20388;-79
2022/12/14 00:03:50;;;;;;;2.88;0.90;;;20.50;68.00;;;;;;5073912;28;20373;-79
2022/12/14 00:06:26;;;;;;;0.98;0.30;;;20.90;70.10;;;;;;5073887;28;20405;-79
2022/12/14 00:08:56;;;;;;;1.70;0.50;;;21.10;64.90;;;;;;5071127;28;20377;-78
2022/12/14 00:11:23;;;;;;;2.63;0.60;;;20.80;64.90;;;;;;5074193;28;20398;-78
2022/12/14 00:13:55;;;;;;;3.40;0.60;;;20.50;66.80;;;;;;5073701;28;20819;-78
2022/12/14 00:16:23;;;;;;;2.75;0.43;;;20.60;66.20;;;;;;5073649;28;20370;-79
2022/12/14 00:18:52;;;;;;;0.85;0.40;;;20.30;66.40;;;;;;5072295;28;20405;-79
2022/12/14 00:21:20;;;;;;;1.63;0.60;;;20.40;65.50;;;;;;5073591;28;20386;-80
2022/12/14 00:23:49;;;;;;;2.00;0.57;;;20.20;65.40;;;;;;5073495;28;20370;-78
2022/12/14 00:26:17;;;;;;;2.20;0.68;;;20.30;64.90;;;;;;5056031;28;20432;-78
2022/12/14 00:28:47;;;;;;;1.67;0.60;;;20.60;62.80;;;;;;5073957;28;20474;-79
2022/12/14 00:31:15;;;;;;;1.88;0.60;;;20.50;59.90;;;;;;5073720;28;20405;-79
2022/12/14 00:33:42;;;;;;;2.80;0.60;;;20.40;58.90;;;;;;5073172;28;20915;-79
2022/12/14 00:36:11;;;;;;;1.65;0.63;;;20.30;56.60;;;;;;5073215;28;20455;-79
2022/12/14 00:38:39;;;;;;;2.30;0.65;;;20.40;56.50;;;;;;5073146;28;20378;-79
2022/12/14 00:41:07;;;;;;;1.70;0.63;;;20.80;57.90;;;;;;5073062;28;20413;-81
2022/12/14 00:43:37;;;;;;;2.25;0.68;;;20.80;53.50;;;;;;5073409;28;20394;-79
2022/12/14 00:46:05;;;;;;;2.33;0.90;;;21.20;52.70;;;;;;5073312;28;20386;-79
2022/12/14 00:48:32;;;;;;;6.72;0.90;;;21.40;52.10;;;;;;5072866;28;20714;-80
2022/12/14 00:50:59;;;;;;;2.28;0.90;;;21.50;50.70;;;;;;5073232;28;20434;-80
2022/12/14 00:53:26;;;;;;;1.80;0.80;;;21.80;51.70;;;;;;5073532;28;20382;-79
2022/12/14 00:55:53;;;;;;;2.50;0.80;;;21.60;51.00;;;;;;5074605;28;20373;-79
2022/12/14 00:58:22;;;;;;;2.03;0.70;;;21.60;48.70;;;;;;5073840;28;20389;-80
2022/12/14 01:01:05;;;;;;;2.40;0.82;;;21.70;48.70;;;;;;5073859;28;20458;-79
2022/12/14 01:03:33;;;;;;;2.70;0.80;;;21.90;47.60;;;;;;5074140;28;20370;-79
2022/12/14 01:06:00;;;;;;;2.90;0.68;;;21.80;46.20;;;;;;5072073;28;20393;-80
2022/12/14 01:08:33;;;;;;;3.17;0.80;;;21.80;46.70;;;;;;5074289;28;20370;-79
2022/12/14 01:11:04;;;;;;;2.30;0.90;;;21.60;48.10;;;;;;5073962;28;20432;-80
2022/12/14 01:13:31;;;;;;;1.90;0.60;;;21.40;48.60;;;;;;5075769;28;20362;-77
2022/12/14 01:16:06;;;;;;;1.55;0.70;;;21.50;48.10;;;;;;5072864;28;20798;-77
2022/12/14 01:18:35;;;;;;;2.38;0.80;;;22.30;46.30;;;;;;5073090;28;20428;-78
2022/12/14 01:21:09;;;;;;;1.30;0.70;;;22.40;45.80;;;;;;5072798;28;20370;-77
2022/12/14 01:23:36;;;;;;;2.10;0.80;;;22.40;46.90;;;;;;5072858;28;20910;-77
2022/12/14 01:26:03;;;;;;;3.53;0.87;;;22.60;46.80;;;;;;5070061;28;20424;-78
2022/12/14 01:28:30;;;;;;;2.60;0.70;;;23.30;45.80;;;;;;5072411;28;20462;-78
2022/12/14 01:30:57;;;;;;;4.40;0.90;;;23.40;44.80;;;;;;5072909;28;20765;-78
2022/12/14 01:33:24;;;;;;;2.83;0.80;;;23.00;43.00;;;;;;5072749;28;20366;-78
2022/12/14 01:35:54;;;;;;;2.83;0.90;;;23.20;44.20;;;;;;5071860;28;21427;-78
2022/12/14 01:38:21;;;;;;;1.45;0.60;;;22.90;43.90;;;;;;5072159;28;20378;-78
2022/12/14 01:40:48;;;;;;;1.58;0.60;;;23.00;45.30;;;;;;5072495;28;20432;-77
2022/12/14 01:46:42;;;;;;;1.90;0.60;;;23.90;44.20;;;;;;5072558;28;20423;-77
2022/12/14 01:49:19;;;;;;;3.58;0.60;;;23.00;42.20;;;;;;5072725;28;20379;-78
2022/12/14 01:51:57;;;;;;;1.27;0.60;;;22.80;41.50;;;;;;5072281;28;20394;-78
2022/12/14 01:54:26;;;;;;;2.70;0.60;;;22.90;42.60;;;;;;5072290;28;20412;-78
2022/12/14 01:56:54;;;;;;;0.82;0.40;;;23.50;42.30;;;;;;5072115;28;20374;-78
2022/12/14 01:59:28;;;;;;;0.80;0.50;;;23.90;41.90;;;;;;5072272;28;20443;-77
2022/12/14 02:01:57;;;;;;;3.22;0.57;;;23.90;41.40;;;;;;5072116;28;20861;-78
2022/12/14 02:04:25;;;;;;;1.63;0.50;;;23.90;41.80;;;;;;5071972;28;20370;-78
2022/12/14 02:06:53;;;;;;;1.75;0.70;;;24.10;41.90;;;;;;5072244;28;20730;-80
2022/12/14 02:09:27;;;;;;;2.10;0.52;;;24.10;41.50;;;;;;5072074;28;20374;-79
2022/12/14 02:12:05;;;;;;;1.00;0.50;;;23.90;40.60;;;;;;5071961;28;20402;-80
2022/12/14 02:14:33;;;;;;;1.48;0.60;;;24.20;41.40;;;;;;5072580;28;20376;-79
2022/12/14 02:17:00;;;;;;;1.15;0.60;;;24.70;41.30;;;;;;5076346;28;20378;-80
2022/12/14 02:19:27;;;;;;;2.45;0.70;;;25.30;40.60;;;;;;5075840;28;20373;-78
2022/12/14 02:22:18;;;;;;;2.17;0.70;;;25.30;40.90;;;;;;5075937;28;20853;-80
2022/12/14 02:25:12;;;;;;;1.02;0.47;;;25.40;40.20;;;;;;5076418;28;20745;-78
2022/12/14 02:28:10;;;;;;;1.48;0.50;;;26.30;39.50;;;;;;5076054;28;20387;-80
2022/12/14 02:30:42;;;;;;;1.73;0.50;;;26.50;38.80;;;;;;5055982;28;20491;-79
2022/12/14 02:33:30;;;;;;;1.75;0.50;;;26.90;38.70;;;;;;5055621;28;20443;-78
2022/12/14 02:36:11;;;;;;;1.60;0.50;;;26.00;37.70;;;;;;5055386;28;20426;-77
2022/12/14 02:38:44;;;;;;;1.33;0.65;;;25.30;40.20;;;;;;5055807;28;20446;-77
2022/12/14 02:41:38;;;;;;;1.83;0.60;;;25.40;38.80;;;;;;5055327;28;20379;-77
2022/12/14 02:44:25;;;;;;;1.47;0.50;;;26.20;39.40;;;;;;5055992;28;20360;-78
2022/12/14 02:47:14;;;;;;;2.40;0.60;;;26.60;37.60;;;;;;5055396;28;20371;-79
2022/12/14 02:50:04;;;;;;;2.75;0.70;;;26.20;37.90;;;;;;5037501;28;20384;-79
2022/12/14 02:52:46;;;;;;;1.27;0.55;;;25.60;37.80;;;;;;5055073;28;20399;-78
2022/12/14 02:55:25;;;;;;;1.23;0.52;;;25.40;40.00;;;;;;5055049;28;20372;-81
2022/12/14 02:58:16;;;;;;;1.67;0.50;;;26.10;39.40;;;;;;5055139;28;20869;-78
2022/12/14 03:00:44;;;;;;;1.43;0.50;;;26.10;37.70;;;;;;5055482;28;20376;-78
2022/12/14 03:03:11;;;;;;;2.45;0.65;;;26.50;37.40;;;;;;5054891;28;20502;-78
2022/12/14 03:05:38;;;;;;;2.60;0.40;;;26.70;36.10;;;;;;5055202;28;20862;-78
2022/12/14 03:08:15;;;;;;;1.25;0.50;;;26.50;37.50;;;;;;5055473;28;20387;-79
2022/12/14 03:10:48;;;;;;;1.98;0.60;;;26.60;36.50;;;;;;5054833;28;20432;-77
2022/12/14 03:13:27;;;;;;;1.02;0.50;;;26.40;36.70;;;;;;5054939;28;20493;-78
2022/12/14 03:16:15;;;;;;;1.83;0.50;;;26.70;35.50;;;;;;5054653;28;20387;-78
2022/12/14 03:18:51;;;;;;;0.83;0.40;;;26.60;34.50;;;;;;5036981;28;20875;-78
2022/12/14 03:21:26;;;;;;;1.08;0.40;;;26.50;35.30;;;;;;5036969;28;20433;-79
2022/12/14 03:23:56;;;;;;;1.92;0.38;;;26.50;34.50;;;;;;5054548;28;20377;-78
2022/12/14 03:26:29;;;;;;;1.40;0.40;;;26.70;35.00;;;;;;5053340;28;20383;-78
2022/12/14 03:29:05;;;;;;;1.02;0.50;;;26.80;33.90;;;;;;5064927;28;20390;-78
2022/12/14 03:31:46;;;;;;;0.88;0.40;;;26.90;35.70;;;;;;5074438;28;20402;-78
2022/12/14 03:34:16;;;;;;;0.60;0.40;;;27.10;36.50;;;;;;5074490;28;20363;-78
2022/12/14 03:36:55;;;;;;;2.00;0.35;;;27.90;34.60;;;;;;5074586;28;20926;-78
2022/12/14 03:39:28;;;;;;;1.40;0.40;;;27.40;34.70;;;;;;5074647;28;20366;-77
2022/12/14 03:42:11;;;;;;;1.13;0.45;;;27.50;34.60;;;;;;5074542;28;20888;-78
2022/12/14 03:45:02;;;;;;;2.10;0.40;;;27.20;35.20;;;;;;5074341;28;20366;-78
2022/12/14 03:48:01;;;;;;;0.63;0.30;;;27.30;34.80;;;;;;5074230;28;20370;-78
2022/12/14 03:50:55;;;;;;;1.20;0.30;;;27.70;36.30;;;;;;5032114;28;20377;-79
2022/12/14 03:53:48;;;;;;;0.65;0.30;;;27.40;34.50;;;;;;4973231;28;20428;-78
2022/12/14 03:56:34;;;;;;;0.60;0.40;;;27.10;34.50;;;;;;4915933;29;20729;-80
2022/12/14 03:59:11;;;;;;;0.75;0.30;;;27.30;34.40;;;;;;4916303;29;20384;-78
2022/12/14 04:01:44;;;;;;;0.40;0.30;;;27.00;34.70;;;;;;4915963;29;20432;-79
2022/12/14 04:04:26;;;;;;;2.10;0.50;;;27.10;35.40;;;;;;4915782;29;20394;-79
2022/12/14 04:07:11;;;;;;;1.60;0.40;;;27.30;35.60;;;;;;4915812;29;20395;-79
2022/12/14 04:10:02;;;;;;;1.42;0.45;;;26.80;34.20;;;;;;4915715;29;20388;-78
2022/12/14 04:18:55;;;;;;;1.50;0.40;;;26.90;35.30;;;;;;4916287;29;20396;-78
2022/12/14 04:21:27;;;;;;;2.38;0.43;;;27.30;35.90;;;;;;4915365;29;20744;-78
2022/12/14 04:27:06;;;;;;;2.08;0.60;;;27.80;35.10;;;;;;4908088;29;20473;-79
2022/12/14 04:32:56;;;;;;;1.77;0.40;;;27.60;34.90;;;;;;4978599;28;20849;-78
2022/12/14 04:35:38;;;;;;;0.95;0.30;;;27.20;35.30;;;;;;4992716;28;20472;-80
2022/12/14 04:38:15;;;;;;;0.98;0.25;;;26.40;35.50;;;;;;4991629;28;20381;-80
2022/12/14 04:40:51;;;;;;;1.50;0.30;;;26.20;35.40;;;;;;4992142;28;20385;-79
2022/12/14 04:43:22;;;;;;;2.30;0.40;;;25.60;35.90;;;;;;4992119;28;20412;-79
2022/12/14 04:46:00;;;;;;;0.85;0.40;;;25.80;37.40;;;;;;4992216;28;20388;-79
2022/12/14 04:48:37;;;;;;;1.90;0.50;;;25.60;36.60;;;;;;4991725;28;20391;-79
2022/12/14 04:51:15;;;;;;;2.13;0.40;;;26.10;37.00;;;;;;4991822;28;20415;-79
2022/12/14 04:53:46;;;;;;;1.20;0.30;;;26.30;37.20;;;;;;4991828;28;20380;-79
2022/12/14 04:56:19;;;;;;;1.23;0.40;;;26.10;36.90;;;;;;4992116;28;20809;-79
2022/12/14 04:58:46;;;;;;;1.55;0.30;;;26.00;37.60;;;;;;4991730;28;20387;-79
2022/12/14 05:01:28;;;;;;;1.93;0.43;;;26.70;37.20;;;;;;4991506;28;20388;-80
2022/12/14 05:04:37;;;;;;;1.10;0.30;;;27.10;36.90;;;;;;4991395;28;20400;-81
2022/12/14 05:07:08;;;;;;;4.03;0.40;;;27.00;36.70;;;;;;4994310;28;20395;-80
2022/12/14 05:10:08;;;;;;;0.63;0.23;;;26.50;36.40;;;;;;5052610;28;20459;-79
2022/12/14 05:12:55;;;;;;;1.55;0.30;;;26.50;36.50;;;;;;5035265;28;20403;-81
2022/12/14 05:15:39;;;;;;;1.77;0.40;;;26.30;37.20;;;;;;5052815;28;20364;-80
2022/12/14 05:18:07;;;;;;;0.93;0.40;;;26.40;38.10;;;;;;5052757;28;20383;-80
2022/12/14 05:20:34;;;;;;;1.83;0.40;;;27.10;37.60;;;;;;5052454;28;20383;-80
2022/12/14 05:23:01;;;;;;;2.45;0.38;;;26.30;37.50;;;;;;5052560;28;20380;-80
2022/12/14 05:25:28;;;;;;;2.40;0.50;;;26.00;37.80;;;;;;5052461;28;20376;-79
2022/12/14 05:27:55;;;;;;;1.27;0.30;;;25.80;38.00;;;;;;5054361;28;20534;-79
2022/12/14 05:30:22;;;;;;;1.73;0.30;;;26.00;38.50;;;;;;5072469;28;20842;-79
2022/12/14 05:32:49;;;;;;;0.73;0.30;;;26.50;38.20;;;;;;5072367;28;20432;-79
2022/12/14 05:35:17;;;;;;;1.60;0.30;;;26.40;37.40;;;;;;5072758;28;20386;-79
2022/12/14 05:37:44;;;;;;;0.95;0.38;;;26.00;38.20;;;;;;5072359;28;20370;-78
2022/12/14 05:40:11;;;;;;;0.75;0.30;;;26.20;38.00;;;;;;5072299;28;20366;-79
2022/12/14 05:42:39;;;;;;;0.73;0.30;;;26.00;37.80;;;;;;5072556;28;20433;-79
2022/12/14 05:45:06;;;;;;;4.47;0.40;;;26.70;38.20;;;;;;5072425;28;20390;-79
2022/12/14 05:47:33;;;;;;;1.20;0.40;;;26.30;37.50;;;;;;5072144;28;20408;-78
2022/12/14 05:50:00;;;;;;;0.68;0.30;;;25.90;38.50;;;;;;5071342;28;20772;-79
2022/12/14 05:52:27;;;;;;;0.77;0.40;;;25.80;37.70;;;;;;5071952;28;20435;-79
2022/12/14 05:54:54;;;;;;;0.85;0.40;;;26.10;38.30;;;;;;5072111;28;20374;-78
2022/12/14 05:57:21;;;;;;;0.55;0.30;;;26.00;38.30;;;;;;5072385;28;20931;-79
2022/12/14 05:59:48;;;;;;;1.40;0.40;;;25.80;38.30;;;;;;5072147;28;20428;-79
2022/12/14 06:02:15;;;;;;;0.75;0.40;;;25.50;38.50;;;;;;5072095;28;20370;-78
2022/12/14 06:04:42;;;;;;;4.30;0.50;;;25.20;38.10;;;;;;5071944;28;20471;-78
2022/12/14 06:07:10;;;;;;;0.63;0.30;;;25.30;38.60;;;;;;5071881;28;20462;-79
2022/12/14 06:09:37;;;;;;;2.38;0.40;;;25.30;38.20;;;;;;5072211;28;20366;-80
2022/12/14 06:12:04;;;;;;;1.35;0.30;;;25.00;37.90;;;;;;5071956;28;20905;-77
2022/12/14 06:14:31;;;;;;;0.98;0.40;;;25.20;38.50;;;;;;5072011;28;20842;-81
2022/12/14 06:16:59;;;;;;;6.63;3.50;;;24.80;38.30;;;;;;5071735;28;20378;-85
2022/12/14 06:19:26;;;;;;;9.43;6.78;;;24.70;38.40;;;;;;5071870;28;20459;-83
2022/12/14 06:21:53;;;;;;;17.60;14.48;;;24.90;39.30;;;;;;5071952;28;20377;-83
2022/12/14 06:24:19;;;;;;;34.65;28.80;;;25.30;39.30;;;;;;5070641;28;20418;-82
2022/12/14 06:26:47;;;;;;;5.57;3.22;;;25.10;39.60;;;;;;5071599;28;20385;-81
2022/12/14 06:29:17;;;;;;;2.22;1.05;;;24.90;39.70;;;;;;5071154;28;20390;-82
2022/12/14 06:31:44;;;;;;;22.90;17.88;;;25.20;39.40;;;;;;5071656;28;20401;-82
2022/12/14 06:34:12;;;;;;;128.10;90.38;;;25.20;38.80;;;;;;5071340;28;20777;-88
2022/12/14 06:36:41;;;;;;;124.22;102.50;;;24.80;39.30;;;;;;5069958;28;20802;-82
2022/12/14 06:39:14;;;;;;;22.02;16.02;;;24.70;40.10;;;;;;5071614;28;20366;-82
2022/12/14 06:41:41;;;;;;;57.72;45.85;;;24.60;40.80;;;;;;5071297;28;20374;-84
2022/12/14 06:44:12;;;;;;;4.22;0.93;;;24.60;39.90;;;;;;5071284;28;20366;-82
2022/12/14 06:46:39;;;;;;;28.58;21.40;;;24.50;40.20;;;;;;5071281;28;20409;-83
2022/12/14 06:49:07;;;;;;;32.88;24.45;;;24.60;40.80;;;;;;5069176;28;20370;-80
2022/12/14 06:51:43;;;;;;;2.80;2.03;;;25.00;40.80;;;;;;5069672;28;20471;-82
2022/12/14 06:54:13;;;;;;;12.75;9.32;;;24.60;40.60;;;;;;5069414;28;20416;-82
2022/12/14 06:56:42;;;;;;;5.50;3.13;;;24.50;41.50;;;;;;5070080;28;20370;-82
2022/12/14 06:59:09;;;;;;;1.65;0.85;;;24.80;41.20;;;;;;5069578;28;20382;-80
2022/12/14 07:01:37;;;;;;;1.37;0.40;;;24.20;41.00;;;;;;5071744;28;20481;-81
2022/12/14 07:04:05;;;;;;;3.53;1.73;;;23.30;42.70;;;;;;5072949;28;20849;-80
2022/12/14 07:06:35;;;;;;;8.40;5.00;;;23.10;42.90;;;;;;5073108;28;20449;-81
2022/12/14 07:09:03;;;;;;;4.07;2.35;;;23.40;43.10;;;;;;5072879;28;20382;-81
2022/12/14 07:11:30;;;;;;;6.13;3.22;;;23.70;42.30;;;;;;5072697;28;20390;-81
2022/12/14 07:14:04;;;;;;;3.93;2.27;;;23.90;42.20;;;;;;5073037;28;20367;-81
2022/12/14 07:16:32;;;;;;;3.70;1.27;;;23.70;42.60;;;;;;5056002;28;20469;-81
2022/12/14 07:19:00;;;;;;;4.38;2.25;;;23.10;42.70;;;;;;5072776;28;20375;-78
2022/12/14 07:21:28;;;;;;;0.63;0.40;;;22.40;43.50;;;;;;5072650;28;20431;-80
2022/12/14 07:23:55;;;;;;;1.20;0.50;;;22.40;43.50;;;;;;5072738;28;20374;-80
2022/12/14 07:26:24;;;;;;;3.15;1.42;;;22.80;43.40;;;;;;5073375;28;20385;-78
2022/12/14 07:28:52;;;;;;;3.08;1.45;;;23.10;42.30;;;;;;5074478;28;20436;-81
2022/12/14 07:31:24;;;;;;;1.10;0.40;;;23.10;42.40;;;;;;5074532;28;20394;-80
2022/12/14 07:33:57;;;;;;;3.40;1.40;;;23.10;42.70;;;;;;5074022;28;20381;-80
2022/12/14 07:36:25;;;;;;;0.70;0.32;;;23.10;41.80;;;;;;5074596;28;20374;-80
2022/12/14 07:38:56;;;;;;;2.33;1.20;;;22.80;42.00;;;;;;5074476;28;20871;-80
2022/12/14 07:41:29;;;;;;;2.08;0.60;;;22.70;42.70;;;;;;5073309;28;20421;-82
2022/12/14 07:43:59;;;;;;;1.50;0.60;;;22.50;42.90;;;;;;5074351;28;20378;-81
2022/12/14 07:46:27;;;;;;;1.00;0.60;;;22.20;43.40;;;;;;5074128;28;20393;-80
2022/12/14 07:48:56;;;;;;;2.85;0.70;;;21.90;44.30;;;;;;5074301;28;20374;-80
2022/12/14 07:51:26;;;;;;;2.00;0.60;;;21.70;44.50;;;;;;5074129;28;20796;-80
2022/12/14 07:53:53;;;;;;;1.10;0.47;;;22.00;43.80;;;;;;5074150;28;20374;-80
2022/12/14 07:56:26;;;;;;;1.30;0.80;;;21.70;43.70;;;;;;5074248;28;20370;-79
2022/12/14 07:58:55;;;;;;;1.10;0.50;;;21.40;44.90;;;;;;5074126;28;20408;-80
2022/12/14 08:01:28;;;;;;;2.03;0.30;;;21.10;45.20;;;;;;5073829;28;20424;-82
2022/12/14 08:04:05;;;;;;;1.77;0.60;;;21.10;44.90;;;;;;5074312;28;20370;-82
2022/12/14 08:06:33;;;;;;;1.83;0.70;;;21.10;45.50;;;;;;5074314;28;20815;-81
2022/12/14 08:09:00;;;;;;;5.57;0.98;;;21.20;45.60;;;;;;5073967;28;20378;-83
2022/12/14 08:11:27;;;;;;;2.90;0.80;;;21.30;44.90;;;;;;5073884;28;20865;-81
2022/12/14 08:13:58;;;;;;;2.30;0.60;;;21.20;45.00;;;;;;5073006;28;20370;-81
2022/12/14 08:16:26;;;;;;;2.00;0.60;;;21.20;44.70;;;;;;5073738;28;20384;-80
2022/12/14 08:18:55;;;;;;;1.17;0.77;;;21.10;45.40;;;;;;5073708;28;20753;-81
2022/12/14 08:21:23;;;;;;;0.50;0.40;;;21.10;45.40;;;;;;5073511;28;20738;-82
2022/12/14 08:23:53;;;;;;;1.20;0.25;;;21.10;45.40;;;;;;5073761;28;20757;-81
2022/12/14 08:26:21;;;;;;;1.55;0.57;;;20.90;43.90;;;;;;5073480;28;20412;-81
2022/12/14 08:28:48;;;;;;;1.58;0.22;;;20.70;45.10;;;;;;5073268;28;20401;-80
2022/12/14 08:31:18;;;;;;;0.50;0.47;;;20.60;44.90;;;;;;5071931;28;20761;-81
2022/12/14 08:33:46;;;;;;;4.07;0.50;;;20.50;45.20;;;;;;5073516;28;20378;-82
2022/12/14 08:36:17;;;;;;;0.90;0.25;;;20.50;45.30;;;;;;5073381;28;20370;-81
2022/12/14 08:38:44;;;;;;;1.60;0.30;;;20.40;45.40;;;;;;5073181;28;20390;-81
2022/12/14 08:41:14;;;;;;;0.40;0.38;;;20.40;45.40;;;;;;5073031;28;20370;-80
2022/12/14 08:43:41;;;;;;;0.57;0.40;;;20.40;45.60;;;;;;5073030;28;20805;-80
2022/12/14 08:46:09;;;;;;;0.47;0.20;;;20.30;45.80;;;;;;5072986;28;20508;-80
2022/12/14 08:48:37;;;;;;;0.63;0.30;;;20.20;45.70;;;;;;5072962;28;20914;-80
2022/12/14 08:51:09;;;;;;;1.10;0.40;;;20.00;45.90;;;;;;5072770;28;20397;-79
2022/12/14 08:53:37;;;;;;;0.50;0.30;;;19.90;46.30;;;;;;5072869;28;20457;-79
2022/12/14 08:56:07;;;;;;;0.50;0.35;;;19.90;46.10;;;;;;5072424;28;20469;-80
2022/12/14 08:58:34;;;;;;;0.90;0.30;;;19.70;46.80;;;;;;5072778;28;20456;-79
2022/12/14 09:01:07;;;;;;;1.80;0.40;;;19.60;46.80;;;;;;5072616;28;20432;-80
2022/12/14 09:03:34;;;;;;;0.90;0.30;;;19.60;47.10;;;;;;5072644;28;20374;-82
2022/12/14 09:06:03;;;;;;;1.27;0.50;;;19.40;47.20;;;;;;5072642;28;20711;-78
2022/12/14 09:08:31;;;;;;;0.30;0.30;;;19.30;47.70;;;;;;5072531;28;20366;-79
2022/12/14 09:10:59;;;;;;;0.75;0.38;;;19.30;48.70;;;;;;5072649;28;20419;-81
2022/12/14 09:13:27;;;;;;;0.60;0.40;;;19.20;47.90;;;;;;5073194;28;20881;-80
2022/12/14 09:16:06;;;;;;;0.50;0.20;;;19.20;47.80;;;;;;5072606;28;20370;-80
2022/12/14 09:18:33;;;;;;;0.82;0.40;;;19.10;48.20;;;;;;5072499;28;20366;-80
2022/12/14 09:21:01;;;;;;;2.25;0.45;;;19.10;48.20;;;;;;5072460;28;20378;-80
2022/12/14 09:23:30;;;;;;;0.52;0.30;;;19.10;48.20;;;;;;5072281;28;20377;-79
2022/12/14 09:26:12;;;;;;;0.43;0.25;;;19.10;48.50;;;;;;5071760;28;20406;-80
2022/12/14 09:28:40;;;;;;;0.70;0.40;;;19.00;48.60;;;;;;5072279;28;20379;-82
2022/12/14 09:31:11;;;;;;;1.77;0.45;;;18.80;48.90;;;;;;5070944;28;20481;-80
2022/12/14 09:33:38;;;;;;;0.70;0.30;;;18.80;49.50;;;;;;5072314;28;20378;-81
2022/12/14 09:36:12;;;;;;;1.98;0.40;;;18.70;49.70;;;;;;5072545;28;20404;-80
2022/12/14 09:38:40;;;;;;;1.08;0.40;;;18.70;49.80;;;;;;5072351;28;20898;-80
2022/12/14 09:41:24;;;;;;;1.23;0.38;;;18.60;50.30;;;;;;5072299;28;20369;-79
2022/12/14 09:44:02;;;;;;;1.63;0.40;;;18.50;50.60;;;;;;5072395;28;20367;-81
2022/12/14 09:46:44;;;;;;;0.55;0.40;;;18.50;50.70;;;;;;5072824;28;20358;-81
2022/12/14 09:49:28;;;;;;;0.98;0.40;;;18.50;50.60;;;;;;5072127;28;20376;-80
2022/12/14 09:52:01;;;;;;;1.38;0.45;;;18.50;50.70;;;;;;5071912;28;20881;-81
2022/12/14 09:54:39;;;;;;;1.08;0.50;;;18.40;51.00;;;;;;5072106;28;20377;-81
2022/12/14 09:57:24;;;;;;;0.80;0.47;;;18.30;51.30;;;;;;5072071;28;20378;-80
2022/12/14 09:59:54;;;;;;;1.00;0.40;;;18.30;51.00;;;;;;5072684;28;20377;-82
2022/12/14 10:02:49;;;;;;;0.90;0.45;;;18.30;51.20;;;;;;5071986;28;20370;-80
2022/12/14 10:05:42;;;;;;;0.85;0.40;;;18.30;51.30;;;;;;5070702;28;20834;-81
2022/12/14 10:08:30;;;;;;;0.70;0.30;;;18.20;51.60;;;;;;5072181;28;20409;-81
2022/12/14 10:11:15;;;;;;;0.55;0.35;;;18.20;51.80;;;;;;5071941;28;20390;-79
2022/12/14 10:14:03;;;;;;;1.55;0.30;;;18.20;52.00;;;;;;5072660;28;20375;-80
2022/12/14 10:16:54;;;;;;;0.60;0.40;;;18.10;51.90;;;;;;5071754;28;20373;-80
2022/12/14 10:19:40;;;;;;;0.50;0.40;;;18.00;52.40;;;;;;5071851;28;20846;-82
2022/12/14 10:22:12;;;;;;;0.60;0.38;;;18.00;52.70;;;;;;5071988;28;20378;-83
2022/12/14 10:24:46;;;;;;;0.90;0.50;;;17.90;52.70;;;;;;5071951;28;20402;-82
2022/12/14 10:27:22;;;;;;;0.80;0.55;;;17.90;53.20;;;;;;5072368;28;20373;-80
2022/12/14 10:30:00;;;;;;;1.27;0.45;;;17.70;53.40;;;;;;5071701;28;20421;-84
2022/12/14 10:32:38;;;;;;;1.60;0.50;;;17.60;53.90;;;;;;5071728;28;20393;-78
2022/12/14 10:35:13;;;;;;;1.55;0.52;;;17.50;54.90;;;;;;5072136;28;20358;-78
2022/12/14 10:37:45;;;;;;;1.63;0.57;;;17.40;54.20;;;;;;5076217;28;20373;-80
2022/12/14 10:40:31;;;;;;;1.40;0.40;;;17.30;54.50;;;;;;5076318;28;20890;-81
2022/12/14 10:43:01;;;;;;;1.92;0.52;;;17.20;54.80;;;;;;5076109;28;20841;-82
2022/12/14 10:45:46;;;;;;;0.98;0.50;;;17.20;54.90;;;;;;5076026;28;20445;-81
2022/12/14 10:48:39;;;;;;;1.40;0.90;;;17.20;54.80;;;;;;5075968;28;20785;-79
2022/12/14 10:51:21;;;;;;;1.40;0.70;;;17.20;55.20;;;;;;5075876;28;20389;-79
2022/12/14 10:54:10;;;;;;;1.83;0.65;;;17.10;55.30;;;;;;5074306;28;20386;-79
2022/12/14 10:56:41;;;;;;;5.25;0.60;;;17.20;55.00;;;;;;5075392;28;20378;-78
2022/12/14 10:59:25;;;;;;;3.03;0.70;;;17.20;55.40;;;;;;5076037;28;20397;-79
2022/12/14 11:02:28;;;;;;;5.30;0.73;;;17.10;55.50;;;;;;5075098;28;20818;-80
2022/12/14 11:04:55;;;;;;;3.93;0.70;;;17.00;55.90;;;;;;5033308;28;20384;-79
2022/12/14 11:07:32;;;;;;;2.60;0.60;;;17.00;56.00;;;;;;5032923;28;20370;-82
2022/12/14 11:10:22;;;;;;;1.83;0.50;;;17.10;56.40;;;;;;5016803;28;20412;-81
2022/12/14 11:13:12;;;;;;;2.30;0.60;;;17.10;56.20;;;;;;5033031;28;20405;-80
2022/12/14 11:15:44;;;;;;;3.20;0.60;;;17.20;56.40;;;;;;5033474;28;20374;-80
2022/12/14 11:18:16;;;;;;;1.60;0.50;;;17.10;56.40;;;;;;5032799;28;20385;-78
2022/12/14 11:21:01;;;;;;;2.08;0.85;;;17.10;56.60;;;;;;5032889;28;20970;-81
2022/12/14 11:23:40;;;;;;;3.83;1.20;;;17.00;57.00;;;;;;5032675;28;20388;-80
2022/12/14 11:26:15;;;;;;;2.30;1.00;;;16.90;57.40;;;;;;5033179;28;20776;-79
2022/12/14 11:28:51;;;;;;;1.50;0.93;;;16.80;58.00;;;;;;5032438;28;20428;-80
2022/12/14 11:31:24;;;;;;;1.10;0.90;;;16.70;57.90;;;;;;5032523;28;20397;-77
2022/12/14 11:33:54;;;;;;;3.00;1.10;;;16.70;58.10;;;;;;5032818;28;20483;-77
2022/12/14 11:36:25;;;;;;;1.98;1.10;;;16.60;58.40;;;;;;5032514;28;20377;-79
2022/12/14 11:39:14;;;;;;;1.35;0.85;;;16.50;58.90;;;;;;5032659;28;20484;-78
2022/12/14 11:41:43;;;;;;;1.42;0.88;;;16.40;59.30;;;;;;5060900;28;20932;-79
2022/12/14 11:44:16;;;;;;;1.67;0.85;;;16.30;59.50;;;;;;5074257;28;20374;-79
2022/12/14 11:46:58;;;;;;;1.65;0.65;;;16.40;59.80;;;;;;5073871;28;20385;-80
2022/12/14 11:49:42;;;;;;;2.33;0.70;;;16.30;59.40;;;;;;5073890;28;20374;-80
2022/12/14 11:52:17;;;;;;;0.85;0.50;;;16.30;59.40;;;;;;5073972;28;20398;-78
2022/12/14 11:55:12;;;;;;;3.30;0.60;;;16.30;59.10;;;;;;5074057;28;20402;-78
2022/12/14 11:57:53;;;;;;;1.55;0.50;;;16.30;59.30;;;;;;5070191;28;20397;-78
2022/12/14 12:00:34;;;;;;;1.45;0.80;;;16.30;59.90;;;;;;5074159;28;20374;-79
2022/12/14 12:03:14;;;;;;;1.63;0.70;;;16.20;60.40;;;;;;5074138;28;20430;-82
2022/12/14 12:05:42;;;;;;;2.10;0.80;;;16.00;60.90;;;;;;5074017;28;20377;-81
2022/12/14 12:08:23;;;;;;;2.25;0.80;;;16.00;61.40;;;;;;5074487;28;20440;-82
2022/12/14 12:10:53;;;;;;;1.80;0.90;;;15.90;61.40;;;;;;5074738;28;20719;-81
2022/12/14 12:13:26;;;;;;;2.20;0.90;;;15.80;61.60;;;;;;5073894;28;20472;-80
2022/12/14 12:15:56;;;;;;;2.55;1.00;;;15.80;61.40;;;;;;5073975;28;20770;-81
2022/12/14 12:18:35;;;;;;;2.10;1.00;;;15.70;61.70;;;;;;5073946;28;20370;-79
2022/12/14 12:21:20;;;;;;;2.22;0.90;;;15.70;62.30;;;;;;5074261;28;20363;-79
2022/12/14 12:24:11;;;;;;;1.48;0.80;;;15.70;62.10;;;;;;5073769;28;20409;-79
2022/12/14 12:26:40;;;;;;;1.98;0.88;;;15.70;61.70;;;;;;5073804;28;20885;-79
2022/12/14 12:29:25;;;;;;;1.88;0.80;;;15.70;62.10;;;;;;5073336;28;20455;-79
2022/12/14 12:31:57;;;;;;;1.70;0.95;;;15.60;62.60;;;;;;5073719;28;20404;-79
2022/12/14 12:34:37;;;;;;;3.30;0.90;;;15.60;62.70;;;;;;5073173;28;20400;-78
2022/12/14 12:37:12;;;;;;;2.42;0.90;;;15.60;62.20;;;;;;5073467;28;20401;-79
2022/12/14 12:39:43;;;;;;;1.30;0.80;;;15.60;62.40;;;;;;5073334;28;20354;-81
2022/12/14 12:43:00;;;;;;;2.50;0.87;;;15.60;62.70;;;;;;5073568;28;20411;-78
2022/12/14 12:45:47;;;;;;;1.17;0.80;;;15.50;62.60;;;;;;5031214;28;20382;-82
2022/12/14 12:48:32;;;;;;;1.65;0.50;;;15.50;63.40;;;;;;5031302;28;20377;-78
2022/12/14 12:51:11;;;;;;;2.20;0.85;;;15.40;63.50;;;;;;5031486;28;20390;-79
2022/12/14 12:53:51;;;;;;;1.48;0.70;;;15.30;63.70;;;;;;5031194;28;20869;-78
2022/12/14 12:56:38;;;;;;;0.95;0.60;;;15.30;64.40;;;;;;5031668;28;20457;-79
2022/12/14 12:59:06;;;;;;;0.93;0.55;;;15.20;64.50;;;;;;5031108;28;20361;-79
2022/12/14 13:01:51;;;;;;;1.25;0.60;;;15.20;65.30;;;;;;5031057;28;20861;-83
2022/12/14 13:04:46;;;;;;;1.75;0.60;;;15.10;65.60;;;;;;5031282;28;20405;-80
2022/12/14 13:07:35;;;;;;;1.80;0.60;;;15.00;65.80;;;;;;5030159;28;20417;-82
2022/12/14 13:10:23;;;;;;;3.22;0.80;;;15.00;66.00;;;;;;5030651;28;20377;-83
2022/12/14 13:12:56;;;;;;;2.92;0.47;;;14.90;66.20;;;;;;5031031;28;20441;-78
2022/12/14 13:15:30;;;;;;;4.60;0.77;;;14.80;66.60;;;;;;5030800;28;20373;-80
2022/12/14 13:18:24;;;;;;;14.23;1.15;;;14.70;66.70;;;;;;5031165;28;20388;-79
2022/12/14 13:20:52;;;;;;;12.38;1.30;;;14.60;66.90;;;;;;5048433;28;20366;-78
2022/12/14 13:23:27;;;;;;;10.98;1.30;;;14.60;67.30;;;;;;5072672;28;20797;-80
2022/12/14 13:26:15;;;;;;;12.75;1.60;;;14.50;67.80;;;;;;5072867;28;20364;-81
2022/12/14 13:28:54;;;;;;;16.90;1.80;;;14.50;68.20;;;;;;5072502;28;20397;-78
2022/12/14 13:31:24;;;;;;;16.40;1.60;;;14.40;68.50;;;;;;5072450;28;20916;-78
2022/12/14 13:33:59;;;;;;;15.18;1.67;;;14.40;68.70;;;;;;5073159;28;20416;-80
2022/12/14 13:36:26;;;;;;;8.18;1.50;;;14.40;68.50;;;;;;5073450;28;20437;-79
2022/12/14 13:39:03;;;;;;;9.48;1.80;;;14.30;68.60;;;;;;5073647;28;20370;-82